sensor_id;sensor_type;location;lat;lon;timestamp;pressure;altitude;pressure_sealevel;temperature;humidity
216;BME280;64590;48.81286795;9.14184224;2023-01-31T00:02:10;99170.31;;;3.90;73.61
216;BME280;64590;48.81286795;9.14184224;2023-01-31T00:04:38;99165.50;;;3.87;74.18
216;BME280;64590;48.81286795;9.14184224;2023-01-31T00:07:05;99162.75;;;3.87;73.70
216;BME280;64590;48.81286795;9.14184224;2023-01-31T00:09:31;99160.38;;;3.68;74.56
216;BME280;64590;48.81286795;9.14184224;2023-01-31T00:11:58;99163.22;;;3.89;73.85
216;BME280;64590;48.81286795;9.14184224;2023-01-31T00:14:24;99156.00;;;3.76;74.33
216;BME280;64590;48.81286795;9.14184224;2023-01-31T00:16:51;99149.22;;;3.73;74.34
216;BME280;64590;48.81286795;9.14184224;2023-01-31T00:19:18;99152.16;;;3.59;74.73
216;BME280;64590;48.81286795;9.14184224;2023-01-31T00:21:46;99147.97;;;3.53;74.78
216;BME280;64590;48.81286795;9.14184224;2023-01-31T00:24:13;99153.31;;;3.50;74.59
216;BME280;64590;48.81286795;9.14184224;2023-01-31T00:26:39;99139.31;;;3.34;75.10
216;BME280;64590;48.81286795;9.14184224;2023-01-31T00:29:07;99130.06;;;3.38;74.72
216;BME280;64590;48.81286795;9.14184224;2023-01-31T00:31:34;99146.69;;;3.51;74.18
216;BME280;64590;48.81286795;9.14184224;2023-01-31T00:34:01;99146.03;;;3.54;74.23
216;BME280;64590;48.81286795;9.14184224;2023-01-31T00:36:29;99145.91;;;3.50;74.57
216;BME280;64590;48.81286795;9.14184224;2023-01-31T00:38:59;99131.97;;;3.55;74.16
216;BME280;64590;48.81286795;9.14184224;2023-01-31T00:41:28;99133.28;;;3.58;73.54
216;BME280;64590;48.81286795;9.14184224;2023-01-31T00:43:55;99136.03;;;3.58;73.47
216;BME280;64590;48.81286795;9.14184224;2023-01-31T00:46:22;99132.97;;;3.51;73.59
216;BME280;64590;48.81286795;9.14184224;2023-01-31T00:48:49;99127.28;;;3.56;73.62
216;BME280;64590;48.81286795;9.14184224;2023-01-31T00:51:16;99118.78;;;3.49;73.34
216;BME280;64590;48.81286795;9.14184224;2023-01-31T00:53:43;99118.97;;;3.35;73.44
216;BME280;64590;48.81286795;9.14184224;2023-01-31T00:56:13;99123.75;;;3.55;73.00
216;BME280;64590;48.81286795;9.14184224;2023-01-31T00:58:41;99128.63;;;3.41;73.11
216;BME280;64590;48.81286795;9.14184224;2023-01-31T01:01:10;99128.16;;;3.48;72.93
216;BME280;64590;48.81286795;9.14184224;2023-01-31T01:03:38;99111.19;;;3.46;72.76
216;BME280;64590;48.81286795;9.14184224;2023-01-31T01:06:06;99123.75;;;3.47;72.72
216;BME280;64590;48.81286795;9.14184224;2023-01-31T01:08:34;99126.69;;;3.42;72.70
216;BME280;64590;48.81286795;9.14184224;2023-01-31T01:11:04;99124.09;;;3.45;72.73
216;BME280;64590;48.81286795;9.14184224;2023-01-31T01:13:33;99129.78;;;3.31;72.85
216;BME280;64590;48.81286795;9.14184224;2023-01-31T01:16:03;99134.47;;;3.31;72.96
216;BME280;64590;48.81286795;9.14184224;2023-01-31T01:18:30;99119.75;;;3.35;72.99
216;BME280;64590;48.81286795;9.14184224;2023-01-31T01:21:04;99127.34;;;3.38;72.77
216;BME280;64590;48.81286795;9.14184224;2023-01-31T01:23:31;99128.78;;;3.36;72.82
216;BME280;64590;48.81286795;9.14184224;2023-01-31T01:25:58;99126.25;;;3.31;73.34
216;BME280;64590;48.81286795;9.14184224;2023-01-31T01:28:27;99125.91;;;3.41;72.63
216;BME280;64590;48.81286795;9.14184224;2023-01-31T01:30:56;99120.56;;;3.36;73.28
216;BME280;64590;48.81286795;9.14184224;2023-01-31T01:33:23;99126.06;;;3.36;73.11
216;BME280;64590;48.81286795;9.14184224;2023-01-31T01:35:49;99135.91;;;3.37;72.89
216;BME280;64590;48.81286795;9.14184224;2023-01-31T01:38:16;99137.50;;;3.47;72.87
216;BME280;64590;48.81286795;9.14184224;2023-01-31T01:40:45;99141.69;;;3.44;72.83
216;BME280;64590;48.81286795;9.14184224;2023-01-31T01:43:12;99143.19;;;3.33;73.36
216;BME280;64590;48.81286795;9.14184224;2023-01-31T01:45:38;99146.88;;;3.37;73.37
216;BME280;64590;48.81286795;9.14184224;2023-01-31T01:48:07;99145.28;;;3.19;74.24
216;BME280;64590;48.81286795;9.14184224;2023-01-31T01:50:35;99150.28;;;3.25;73.75
216;BME280;64590;48.81286795;9.14184224;2023-01-31T01:53:07;99149.47;;;3.33;73.61
216;BME280;64590;48.81286795;9.14184224;2023-01-31T01:55:39;99157.38;;;3.18;74.14
216;BME280;64590;48.81286795;9.14184224;2023-01-31T01:58:11;99159.97;;;3.23;74.41
216;BME280;64590;48.81286795;9.14184224;2023-01-31T02:00:41;99154.78;;;3.30;74.36
216;BME280;64590;48.81286795;9.14184224;2023-01-31T02:03:11;99154.47;;;3.31;74.48
216;BME280;64590;48.81286795;9.14184224;2023-01-31T02:05:41;99148.50;;;3.29;74.48
216;BME280;64590;48.81286795;9.14184224;2023-01-31T02:08:09;99155.78;;;3.25;74.69
216;BME280;64590;48.81286795;9.14184224;2023-01-31T02:10:43;99154.78;;;3.30;74.70
216;BME280;64590;48.81286795;9.14184224;2023-01-31T02:13:13;99154.97;;;3.33;74.51
216;BME280;64590;48.81286795;9.14184224;2023-01-31T02:15:42;99160.13;;;3.09;75.28
216;BME280;64590;48.81286795;9.14184224;2023-01-31T02:18:10;99169.00;;;3.15;75.04
216;BME280;64590;48.81286795;9.14184224;2023-01-31T02:20:54;99157.88;;;3.20;75.12
216;BME280;64590;48.81286795;9.14184224;2023-01-31T02:23:49;99171.91;;;3.27;75.19
216;BME280;64590;48.81286795;9.14184224;2023-01-31T02:26:43;99187.72;;;3.04;75.75
216;BME280;64590;48.81286795;9.14184224;2023-01-31T02:29:27;99193.03;;;3.26;75.35
216;BME280;64590;48.81286795;9.14184224;2023-01-31T02:32:27;99189.16;;;3.27;75.38
216;BME280;64590;48.81286795;9.14184224;2023-01-31T02:35:04;99188.53;;;3.30;75.05
216;BME280;64590;48.81286795;9.14184224;2023-01-31T02:37:38;99192.38;;;3.38;75.00
216;BME280;64590;48.81286795;9.14184224;2023-01-31T02:40:15;99193.38;;;3.33;75.18
216;BME280;64590;48.81286795;9.14184224;2023-01-31T02:42:49;99203.88;;;3.23;75.66
216;BME280;64590;48.81286795;9.14184224;2023-01-31T02:45:24;99196.13;;;3.16;75.75
216;BME280;64590;48.81286795;9.14184224;2023-01-31T02:48:02;99194.84;;;3.14;76.39
216;BME280;64590;48.81286795;9.14184224;2023-01-31T02:50:37;99193.53;;;3.11;76.60
216;BME280;64590;48.81286795;9.14184224;2023-01-31T02:53:10;99193.19;;;3.04;76.64
216;BME280;64590;48.81286795;9.14184224;2023-01-31T02:55:43;99205.16;;;3.17;76.69
216;BME280;64590;48.81286795;9.14184224;2023-01-31T02:58:32;99201.28;;;3.26;75.80
216;BME280;64590;48.81286795;9.14184224;2023-01-31T03:01:02;99204.16;;;3.21;76.35
216;BME280;64590;48.81286795;9.14184224;2023-01-31T03:03:32;99203.38;;;3.29;76.19
216;BME280;64590;48.81286795;9.14184224;2023-01-31T03:06:40;99195.78;;;3.35;75.94
216;BME280;64590;48.81286795;9.14184224;2023-01-31T03:09:23;99196.78;;;3.30;75.77
216;BME280;64590;48.81286795;9.14184224;2023-01-31T03:12:00;99192.53;;;3.59;75.19
216;BME280;64590;48.81286795;9.14184224;2023-01-31T03:14:38;99193.03;;;3.35;75.31
216;BME280;64590;48.81286795;9.14184224;2023-01-31T03:17:12;99182.72;;;3.32;76.18
216;BME280;64590;48.81286795;9.14184224;2023-01-31T03:20:05;99194.00;;;3.56;74.89
216;BME280;64590;48.81286795;9.14184224;2023-01-31T03:22:36;99182.38;;;3.42;75.12
216;BME280;64590;48.81286795;9.14184224;2023-01-31T03:25:06;99190.44;;;3.56;75.41
216;BME280;64590;48.81286795;9.14184224;2023-01-31T03:27:36;99199.16;;;3.58;74.44
216;BME280;64590;48.81286795;9.14184224;2023-01-31T03:30:09;99193.34;;;3.51;75.23
216;BME280;64590;48.81286795;9.14184224;2023-01-31T03:32:42;99197.38;;;3.53;75.30
216;BME280;64590;48.81286795;9.14184224;2023-01-31T03:35:12;99202.72;;;3.50;75.19
216;BME280;64590;48.81286795;9.14184224;2023-01-31T03:37:43;99204.50;;;3.37;75.42
216;BME280;64590;48.81286795;9.14184224;2023-01-31T03:40:20;99210.31;;;3.44;75.69
216;BME280;64590;48.81286795;9.14184224;2023-01-31T03:42:54;99205.47;;;3.58;74.65
216;BME280;64590;48.81286795;9.14184224;2023-01-31T03:45:27;99214.03;;;3.57;74.57
216;BME280;64590;48.81286795;9.14184224;2023-01-31T03:47:56;99205.94;;;3.52;74.50
216;BME280;64590;48.81286795;9.14184224;2023-01-31T03:50:29;99216.28;;;3.46;74.91
216;BME280;64590;48.81286795;9.14184224;2023-01-31T03:53:04;99209.16;;;3.54;74.51
216;BME280;64590;48.81286795;9.14184224;2023-01-31T03:55:36;99209.66;;;3.38;74.95
216;BME280;64590;48.81286795;9.14184224;2023-01-31T03:58:07;99214.84;;;3.40;74.91
216;BME280;64590;48.81286795;9.14184224;2023-01-31T04:00:37;99222.41;;;3.43;74.56
216;BME280;64590;48.81286795;9.14184224;2023-01-31T04:03:10;99218.22;;;3.37;74.48
216;BME280;64590;48.81286795;9.14184224;2023-01-31T04:05:41;99232.44;;;3.13;75.43
216;BME280;64590;48.81286795;9.14184224;2023-01-31T04:08:08;99233.53;;;3.21;75.11
216;BME280;64590;48.81286795;9.14184224;2023-01-31T04:10:34;99224.34;;;2.99;75.45
216;BME280;64590;48.81286795;9.14184224;2023-01-31T04:13:01;99227.91;;;3.08;75.71
216;BME280;64590;48.81286795;9.14184224;2023-01-31T04:15:28;99240.13;;;3.02;75.28
216;BME280;64590;48.81286795;9.14184224;2023-01-31T04:17:54;99232.03;;;2.71;76.33
216;BME280;64590;48.81286795;9.14184224;2023-01-31T04:20:21;99244.38;;;2.51;76.52
216;BME280;64590;48.81286795;9.14184224;2023-01-31T04:22:49;99235.28;;;2.82;76.00
216;BME280;64590;48.81286795;9.14184224;2023-01-31T04:25:15;99227.78;;;2.57;76.40
216;BME280;64590;48.81286795;9.14184224;2023-01-31T04:27:42;99232.03;;;2.32;76.60
216;BME280;64590;48.81286795;9.14184224;2023-01-31T04:30:09;99222.63;;;2.15;77.22
216;BME280;64590;48.81286795;9.14184224;2023-01-31T04:32:36;99226.78;;;2.04;76.93
216;BME280;64590;48.81286795;9.14184224;2023-01-31T04:35:03;99224.34;;;2.03;77.09
216;BME280;64590;48.81286795;9.14184224;2023-01-31T04:37:30;99236.50;;;1.88;77.46
216;BME280;64590;48.81286795;9.14184224;2023-01-31T04:39:58;99234.25;;;1.90;77.61
216;BME280;64590;48.81286795;9.14184224;2023-01-31T04:42:24;99226.56;;;1.69;77.74
216;BME280;64590;48.81286795;9.14184224;2023-01-31T04:44:51;99230.53;;;1.63;78.27
216;BME280;64590;48.81286795;9.14184224;2023-01-31T04:47:18;99230.38;;;1.60;78.29
216;BME280;64590;48.81286795;9.14184224;2023-01-31T04:49:44;99235.91;;;1.68;78.03
216;BME280;64590;48.81286795;9.14184224;2023-01-31T04:52:11;99220.50;;;1.50;78.49
216;BME280;64590;48.81286795;9.14184224;2023-01-31T04:54:37;99227.38;;;1.70;78.78
216;BME280;64590;48.81286795;9.14184224;2023-01-31T04:57:07;99219.47;;;1.99;78.25
216;BME280;64590;48.81286795;9.14184224;2023-01-31T04:59:34;99227.22;;;1.97;77.96
216;BME280;64590;48.81286795;9.14184224;2023-01-31T05:02:00;99225.47;;;2.02;77.81
216;BME280;64590;48.81286795;9.14184224;2023-01-31T05:04:27;99219.84;;;2.07;78.13
216;BME280;64590;48.81286795;9.14184224;2023-01-31T05:06:53;99228.88;;;2.07;78.67
216;BME280;64590;48.81286795;9.14184224;2023-01-31T05:09:20;99229.72;;;2.16;78.50
216;BME280;64590;48.81286795;9.14184224;2023-01-31T05:11:47;99226.94;;;2.39;77.67
216;BME280;64590;48.81286795;9.14184224;2023-01-31T05:14:15;99227.06;;;2.34;78.08
216;BME280;64590;48.81286795;9.14184224;2023-01-31T05:16:42;99228.06;;;2.38;78.03
216;BME280;64590;48.81286795;9.14184224;2023-01-31T05:19:11;99235.16;;;2.39;77.42
216;BME280;64590;48.81286795;9.14184224;2023-01-31T05:21:38;99236.06;;;2.34;77.42
216;BME280;64590;48.81286795;9.14184224;2023-01-31T05:24:18;99224.56;;;2.15;77.47
216;BME280;64590;48.81286795;9.14184224;2023-01-31T05:26:45;99234.13;;;1.95;77.72
216;BME280;64590;48.81286795;9.14184224;2023-01-31T05:29:16;99233.84;;;2.05;77.63
216;BME280;64590;48.81286795;9.14184224;2023-01-31T05:31:43;99218.78;;;1.85;78.36
216;BME280;64590;48.81286795;9.14184224;2023-01-31T05:34:10;99246.81;;;1.91;78.08
216;BME280;64590;48.81286795;9.14184224;2023-01-31T05:36:40;99242.88;;;1.75;77.96
216;BME280;64590;48.81286795;9.14184224;2023-01-31T05:39:07;99240.81;;;1.80;78.04
216;BME280;64590;48.81286795;9.14184224;2023-01-31T05:41:33;99244.22;;;1.63;78.31
216;BME280;64590;48.81286795;9.14184224;2023-01-31T05:44:00;99242.69;;;1.71;77.71
216;BME280;64590;48.81286795;9.14184224;2023-01-31T05:46:28;99235.09;;;1.68;77.50
216;BME280;64590;48.81286795;9.14184224;2023-01-31T05:48:55;99243.06;;;1.33;78.85
216;BME280;64590;48.81286795;9.14184224;2023-01-31T05:51:21;99237.69;;;1.28;79.25
216;BME280;64590;48.81286795;9.14184224;2023-01-31T05:53:48;99242.84;;;1.30;78.56
216;BME280;64590;48.81286795;9.14184224;2023-01-31T05:56:14;99245.56;;;1.07;79.25
216;BME280;64590;48.81286795;9.14184224;2023-01-31T05:58:41;99243.31;;;1.09;79.89
216;BME280;64590;48.81286795;9.14184224;2023-01-31T06:01:08;99233.31;;;1.05;78.97
216;BME280;64590;48.81286795;9.14184224;2023-01-31T06:03:36;99231.03;;;1.21;78.94
216;BME280;64590;48.81286795;9.14184224;2023-01-31T06:06:03;99235.81;;;1.15;78.81
216;BME280;64590;48.81286795;9.14184224;2023-01-31T06:08:30;99235.34;;;0.99;79.41
216;BME280;64590;48.81286795;9.14184224;2023-01-31T06:10:56;99245.56;;;1.07;79.28
216;BME280;64590;48.81286795;9.14184224;2023-01-31T06:13:23;99241.53;;;1.05;79.17
216;BME280;64590;48.81286795;9.14184224;2023-01-31T06:15:49;99239.66;;;0.64;80.18
216;BME280;64590;48.81286795;9.14184224;2023-01-31T06:18:16;99243.38;;;0.82;80.15
216;BME280;64590;48.81286795;9.14184224;2023-01-31T06:20:44;99243.97;;;0.93;79.79
216;BME280;64590;48.81286795;9.14184224;2023-01-31T06:23:10;99250.81;;;1.04;79.09
216;BME280;64590;48.81286795;9.14184224;2023-01-31T06:25:37;99246.38;;;0.94;79.40
216;BME280;64590;48.81286795;9.14184224;2023-01-31T06:28:04;99247.41;;;0.98;79.31
216;BME280;64590;48.81286795;9.14184224;2023-01-31T06:30:31;99254.13;;;0.78;80.38
216;BME280;64590;48.81286795;9.14184224;2023-01-31T06:32:58;99248.13;;;0.90;80.06
216;BME280;64590;48.81286795;9.14184224;2023-01-31T06:35:25;99252.38;;;0.82;80.29
216;BME280;64590;48.81286795;9.14184224;2023-01-31T06:37:53;99254.16;;;1.15;80.13
216;BME280;64590;48.81286795;9.14184224;2023-01-31T06:40:20;99241.47;;;1.19;79.42
216;BME280;64590;48.81286795;9.14184224;2023-01-31T06:42:46;99257.28;;;1.44;78.94
216;BME280;64590;48.81286795;9.14184224;2023-01-31T06:45:13;99260.81;;;1.45;79.16
216;BME280;64590;48.81286795;9.14184224;2023-01-31T06:47:40;99261.44;;;1.64;78.90
216;BME280;64590;48.81286795;9.14184224;2023-01-31T06:50:08;99257.38;;;1.75;78.84
216;BME280;64590;48.81286795;9.14184224;2023-01-31T06:52:35;99260.38;;;1.74;78.03
216;BME280;64590;48.81286795;9.14184224;2023-01-31T06:55:03;99253.19;;;1.78;78.43
216;BME280;64590;48.81286795;9.14184224;2023-01-31T06:57:30;99253.19;;;2.00;77.62
216;BME280;64590;48.81286795;9.14184224;2023-01-31T06:59:56;99248.78;;;1.99;77.36
216;BME280;64590;48.81286795;9.14184224;2023-01-31T07:02:23;99248.94;;;1.94;77.58
216;BME280;64590;48.81286795;9.14184224;2023-01-31T07:04:49;99249.41;;;2.18;76.43
216;BME280;64590;48.81286795;9.14184224;2023-01-31T07:07:16;99249.56;;;2.22;76.19
216;BME280;64590;48.81286795;9.14184224;2023-01-31T07:09:43;99237.94;;;2.16;76.16
216;BME280;64590;48.81286795;9.14184224;2023-01-31T07:12:11;99237.81;;;2.21;75.64
216;BME280;64590;48.81286795;9.14184224;2023-01-31T07:14:37;99245.56;;;1.97;76.81
216;BME280;64590;48.81286795;9.14184224;2023-01-31T07:17:04;99246.63;;;2.10;76.05
216;BME280;64590;48.81286795;9.14184224;2023-01-31T07:19:30;99236.38;;;1.93;76.22
216;BME280;64590;48.81286795;9.14184224;2023-01-31T07:21:57;99253.94;;;1.92;76.80
216;BME280;64590;48.81286795;9.14184224;2023-01-31T07:24:24;99253.66;;;2.02;76.27
216;BME280;64590;48.81286795;9.14184224;2023-01-31T07:26:51;99248.56;;;2.09;76.28
216;BME280;64590;48.81286795;9.14184224;2023-01-31T07:29:19;99249.88;;;2.20;76.59
216;BME280;64590;48.81286795;9.14184224;2023-01-31T07:31:45;99251.06;;;2.28;76.08
216;BME280;64590;48.81286795;9.14184224;2023-01-31T07:34:12;99248.81;;;2.30;76.04
216;BME280;64590;48.81286795;9.14184224;2023-01-31T07:36:39;99261.69;;;2.30;75.82
216;BME280;64590;48.81286795;9.14184224;2023-01-31T07:39:05;99253.41;;;2.52;74.90
216;BME280;64590;48.81286795;9.14184224;2023-01-31T07:41:32;99239.47;;;2.31;75.43
216;BME280;64590;48.81286795;9.14184224;2023-01-31T07:43:58;99262.09;;;2.45;75.14
216;BME280;64590;48.81286795;9.14184224;2023-01-31T07:46:26;99258.78;;;2.66;74.91
216;BME280;64590;48.81286795;9.14184224;2023-01-31T07:48:53;99257.81;;;2.62;74.81
216;BME280;64590;48.81286795;9.14184224;2023-01-31T07:51:19;99262.94;;;2.54;75.23
216;BME280;64590;48.81286795;9.14184224;2023-01-31T07:53:46;99261.84;;;2.73;75.05
216;BME280;64590;48.81286795;9.14184224;2023-01-31T07:56:14;99258.78;;;2.74;74.65
216;BME280;64590;48.81286795;9.14184224;2023-01-31T07:58:42;99265.94;;;3.01;73.81
216;BME280;64590;48.81286795;9.14184224;2023-01-31T08:01:12;99268.22;;;3.08;73.27
216;BME280;64590;48.81286795;9.14184224;2023-01-31T08:03:58;99269.69;;;3.14;72.68
216;BME280;64590;48.81286795;9.14184224;2023-01-31T08:06:26;99281.13;;;2.99;73.24
216;BME280;64590;48.81286795;9.14184224;2023-01-31T08:08:55;99275.34;;;3.18;73.16
216;BME280;64590;48.81286795;9.14184224;2023-01-31T08:11:22;99275.50;;;3.21;72.87
216;BME280;64590;48.81286795;9.14184224;2023-01-31T08:13:48;99276.63;;;3.29;72.51
216;BME280;64590;48.81286795;9.14184224;2023-01-31T08:16:15;99280.50;;;3.28;72.33
216;BME280;64590;48.81286795;9.14184224;2023-01-31T08:18:42;99280.50;;;3.28;72.45
216;BME280;64590;48.81286795;9.14184224;2023-01-31T08:21:11;99281.00;;;3.30;72.70
216;BME280;64590;48.81286795;9.14184224;2023-01-31T08:23:38;99280.69;;;3.40;72.82
216;BME280;64590;48.81286795;9.14184224;2023-01-31T08:26:07;99274.72;;;3.64;71.53
216;BME280;64590;48.81286795;9.14184224;2023-01-31T08:28:35;99275.69;;;3.68;70.80
216;BME280;64590;48.81286795;9.14184224;2023-01-31T08:31:02;99268.25;;;3.68;71.00
216;BME280;64590;48.81286795;9.14184224;2023-01-31T08:33:29;99269.72;;;3.75;70.28
216;BME280;64590;48.81286795;9.14184224;2023-01-31T08:35:56;99271.66;;;3.65;70.27
216;BME280;64590;48.81286795;9.14184224;2023-01-31T08:38:24;99267.25;;;3.90;69.46
216;BME280;64590;48.81286795;9.14184224;2023-01-31T08:40:51;99261.75;;;3.90;69.31
216;BME280;64590;48.81286795;9.14184224;2023-01-31T08:43:17;99266.13;;;4.00;69.08
216;BME280;64590;48.81286795;9.14184224;2023-01-31T08:45:44;99264.00;;;4.06;69.27
216;BME280;64590;48.81286795;9.14184224;2023-01-31T08:48:10;99266.31;;;3.86;68.95
216;BME280;64590;48.81286795;9.14184224;2023-01-31T08:50:37;99256.09;;;3.95;68.87
216;BME280;64590;48.81286795;9.14184224;2023-01-31T08:53:03;99253.19;;;4.01;68.69
216;BME280;64590;48.81286795;9.14184224;2023-01-31T08:55:34;99251.72;;;4.03;69.26
216;BME280;64590;48.81286795;9.14184224;2023-01-31T08:58:01;99260.63;;;4.09;68.32
216;BME280;64590;48.81286795;9.14184224;2023-01-31T09:00:28;99254.59;;;4.15;68.37
216;BME280;64590;48.81286795;9.14184224;2023-01-31T09:02:56;99258.63;;;4.27;67.88
216;BME280;64590;48.81286795;9.14184224;2023-01-31T09:05:24;99253.44;;;4.25;67.63
216;BME280;64590;48.81286795;9.14184224;2023-01-31T09:07:52;99261.56;;;4.13;68.50
216;BME280;64590;48.81286795;9.14184224;2023-01-31T09:10:20;99255.69;;;4.32;67.66
216;BME280;64590;48.81286795;9.14184224;2023-01-31T09:12:48;99259.56;;;4.31;67.83
216;BME280;64590;48.81286795;9.14184224;2023-01-31T09:15:15;99270.91;;;4.29;68.10
216;BME280;64590;48.81286795;9.14184224;2023-01-31T09:17:41;99265.53;;;4.33;67.85
216;BME280;64590;48.81286795;9.14184224;2023-01-31T09:20:09;99262.44;;;4.34;68.17
216;BME280;64590;48.81286795;9.14184224;2023-01-31T09:22:36;99264.03;;;4.52;67.23
216;BME280;64590;48.81286795;9.14184224;2023-01-31T09:25:03;99264.09;;;4.73;66.97
216;BME280;64590;48.81286795;9.14184224;2023-01-31T09:27:30;99261.25;;;4.61;66.50
216;BME280;64590;48.81286795;9.14184224;2023-01-31T09:29:58;99262.31;;;4.69;67.50
216;BME280;64590;48.81286795;9.14184224;2023-01-31T09:32:25;99257.53;;;4.57;67.74
216;BME280;64590;48.81286795;9.14184224;2023-01-31T09:34:51;99249.94;;;4.83;66.75
216;BME280;64590;48.81286795;9.14184224;2023-01-31T09:37:18;99250.56;;;4.89;66.61
216;BME280;64590;48.81286795;9.14184224;2023-01-31T09:39:44;99246.97;;;4.97;66.47
216;BME280;64590;48.81286795;9.14184224;2023-01-31T09:42:17;99242.91;;;4.95;66.04
216;BME280;64590;48.81286795;9.14184224;2023-01-31T09:44:51;99251.91;;;5.13;66.18
216;BME280;64590;48.81286795;9.14184224;2023-01-31T09:47:25;99252.16;;;5.20;64.73
216;BME280;64590;48.81286795;9.14184224;2023-01-31T09:49:56;99243.25;;;4.93;66.03
216;BME280;64590;48.81286795;9.14184224;2023-01-31T09:52:24;99250.13;;;5.29;65.69
216;BME280;64590;48.81286795;9.14184224;2023-01-31T09:54:53;99254.03;;;5.28;64.76
216;BME280;64590;48.81286795;9.14184224;2023-01-31T09:57:30;99245.44;;;5.08;63.92
216;BME280;64590;48.81286795;9.14184224;2023-01-31T10:00:10;99245.91;;;5.10;64.67
216;BME280;64590;48.81286795;9.14184224;2023-01-31T10:03:23;99257.34;;;5.21;64.03
216;BME280;64590;48.81286795;9.14184224;2023-01-31T10:05:56;99266.25;;;5.18;64.47
216;BME280;64590;48.81286795;9.14184224;2023-01-31T10:08:37;99262.09;;;5.33;64.83
216;BME280;64590;48.81286795;9.14184224;2023-01-31T10:11:09;99265.66;;;5.13;64.83
216;BME280;64590;48.81286795;9.14184224;2023-01-31T10:13:43;99267.63;;;5.03;64.93
216;BME280;64590;48.81286795;9.14184224;2023-01-31T10:16:20;99270.06;;;5.05;65.57
216;BME280;64590;48.81286795;9.14184224;2023-01-31T10:18:53;99277.06;;;5.23;65.00
216;BME280;64590;48.81286795;9.14184224;2023-01-31T10:21:27;99271.69;;;5.27;64.39
216;BME280;64590;48.81286795;9.14184224;2023-01-31T10:23:57;99260.97;;;5.34;64.54
216;BME280;64590;48.81286795;9.14184224;2023-01-31T10:26:28;99263.66;;;5.22;64.60
216;BME280;64590;48.81286795;9.14184224;2023-01-31T10:28:58;99254.25;;;4.93;65.62
216;BME280;64590;48.81286795;9.14184224;2023-01-31T10:31:29;99260.16;;;5.13;65.46
216;BME280;64590;48.81286795;9.14184224;2023-01-31T10:34:02;99257.75;;;5.32;65.44
216;BME280;64590;48.81286795;9.14184224;2023-01-31T10:36:33;99251.88;;;5.54;64.44
216;BME280;64590;48.81286795;9.14184224;2023-01-31T10:39:05;99244.75;;;5.74;63.89
216;BME280;64590;48.81286795;9.14184224;2023-01-31T10:41:40;99250.63;;;5.52;64.34
216;BME280;64590;48.81286795;9.14184224;2023-01-31T10:44:17;99256.94;;;5.52;64.34
216;BME280;64590;48.81286795;9.14184224;2023-01-31T10:46:46;99240.53;;;5.56;64.11
216;BME280;64590;48.81286795;9.14184224;2023-01-31T10:49:14;99252.03;;;5.58;64.36
216;BME280;64590;48.81286795;9.14184224;2023-01-31T10:51:51;99238.00;;;5.51;63.78
216;BME280;64590;48.81286795;9.14184224;2023-01-31T10:54:33;99246.22;;;5.72;64.43
216;BME280;64590;48.81286795;9.14184224;2023-01-31T10:57:02;99247.78;;;5.60;64.33
216;BME280;64590;48.81286795;9.14184224;2023-01-31T10:59:30;99252.38;;;5.56;64.49
216;BME280;64590;48.81286795;9.14184224;2023-01-31T11:01:58;99258.06;;;5.51;64.93
216;BME280;64590;48.81286795;9.14184224;2023-01-31T11:04:29;99245.13;;;5.31;64.77
216;BME280;64590;48.81286795;9.14184224;2023-01-31T11:06:58;99247.13;;;5.43;65.31
216;BME280;64590;48.81286795;9.14184224;2023-01-31T11:09:27;99242.31;;;5.39;65.22
216;BME280;64590;48.81286795;9.14184224;2023-01-31T11:11:56;99237.38;;;5.45;65.57
216;BME280;64590;48.81286795;9.14184224;2023-01-31T11:14:22;99239.22;;;5.41;64.97
216;BME280;64590;48.81286795;9.14184224;2023-01-31T11:16:57;99228.25;;;5.32;65.45
216;BME280;64590;48.81286795;9.14184224;2023-01-31T11:19:31;99219.47;;;5.18;65.24
216;BME280;64590;48.81286795;9.14184224;2023-01-31T11:21:59;99219.00;;;5.16;65.95
216;BME280;64590;48.81286795;9.14184224;2023-01-31T11:24:28;99211.53;;;5.37;65.48
216;BME280;64590;48.81286795;9.14184224;2023-01-31T11:26:59;99215.81;;;5.47;65.79
216;BME280;64590;48.81286795;9.14184224;2023-01-31T11:29:30;99207.69;;;5.51;65.03
216;BME280;64590;48.81286795;9.14184224;2023-01-31T11:31:59;99204.56;;;5.40;65.83
216;BME280;64590;48.81286795;9.14184224;2023-01-31T11:34:29;99193.00;;;5.26;66.04
216;BME280;64590;48.81286795;9.14184224;2023-01-31T11:37:03;99175.84;;;5.62;66.04
216;BME280;64590;48.81286795;9.14184224;2023-01-31T11:39:31;99168.19;;;5.80;64.72
216;BME280;64590;48.81286795;9.14184224;2023-01-31T11:42:06;99166.00;;;5.73;65.08
216;BME280;64590;48.81286795;9.14184224;2023-01-31T11:44:33;99165.53;;;5.92;64.17
216;BME280;64590;48.81286795;9.14184224;2023-01-31T11:47:02;99166.13;;;5.77;64.25
216;BME280;64590;48.81286795;9.14184224;2023-01-31T11:49:32;99160.28;;;5.78;64.20
216;BME280;64590;48.81286795;9.14184224;2023-01-31T11:52:10;99138.81;;;5.72;63.94
216;BME280;64590;48.81286795;9.14184224;2023-01-31T11:54:39;99168.00;;;5.85;63.16
216;BME280;64590;48.81286795;9.14184224;2023-01-31T11:57:13;99173.63;;;5.88;63.41
216;BME280;64590;48.81286795;9.14184224;2023-01-31T11:59:40;99174.25;;;5.94;63.50
216;BME280;64590;48.81286795;9.14184224;2023-01-31T12:02:23;99166.59;;;5.79;62.23
216;BME280;64590;48.81286795;9.14184224;2023-01-31T12:04:52;99167.84;;;5.69;61.90
216;BME280;64590;48.81286795;9.14184224;2023-01-31T12:07:20;99155.56;;;5.79;62.07